Time;durP1;ratioP1;P1;durP2;ratioP2;P2;SDS_P1;SDS_P2;PMS_P1;PMS_P2;Temp;Humidity;BMP_temperature;BMP_pressure;BME280_temperature;BME280_humidity;BME280_pressure;Samples;Min_cycle;Max_cycle;Signal;HPM_P1;HPM_P2
2022/08/24 00:00:17;;;;;;;15.65;6.55;;;19.40;99.90;;;;;;4989454;28;20036;-83
2022/08/24 00:02:43;;;;;;;11.32;5.97;;;19.60;99.90;;;;;;4992971;28;20037;-83
2022/08/24 00:05:10;;;;;;;12.20;5.95;;;19.60;99.90;;;;;;4994274;28;20105;-83
2022/08/24 00:07:36;;;;;;;11.38;6.25;;;19.50;99.90;;;;;;4993012;28;20441;-83
2022/08/24 00:10:04;;;;;;;10.32;6.25;;;19.40;99.90;;;;;;4992380;28;20031;-82
2022/08/24 00:12:31;;;;;;;14.48;6.40;;;19.40;99.90;;;;;;5000661;28;20068;-83
2022/08/24 00:14:57;;;;;;;15.35;7.07;;;19.50;99.90;;;;;;4991322;28;20070;-83
2022/08/24 00:17:22;;;;;;;15.40;7.25;;;19.70;99.90;;;;;;4983580;28;20041;-83
2022/08/24 00:19:48;;;;;;;16.00;6.68;;;19.90;99.90;;;;;;4992058;28;20395;-83
2022/08/24 00:22:14;;;;;;;13.13;6.53;;;19.90;99.90;;;;;;4994469;28;20038;-83
2022/08/24 00:24:40;;;;;;;15.27;6.95;;;19.80;99.90;;;;;;4991492;28;20022;-83
2022/08/24 00:27:06;;;;;;;12.77;7.40;;;19.70;99.90;;;;;;4991213;28;20034;-83
2022/08/24 00:29:33;;;;;;;14.85;7.57;;;19.50;99.90;;;;;;4991115;28;20383;-83
2022/08/24 00:31:59;;;;;;;15.05;7.13;;;19.40;99.90;;;;;;4989853;28;20513;-82
2022/08/24 00:34:26;;;;;;;13.40;7.40;;;19.40;99.90;;;;;;4988714;28;20030;-83
2022/08/24 00:36:52;;;;;;;13.57;6.90;;;19.30;99.90;;;;;;4994157;28;20026;-83
2022/08/24 00:39:18;;;;;;;14.52;6.90;;;19.20;99.90;;;;;;4989372;28;20041;-83
2022/08/24 00:41:47;;;;;;;15.23;7.00;;;19.20;99.90;;;;;;4991983;28;20100;-83
2022/08/24 00:44:14;;;;;;;13.48;7.47;;;19.10;99.90;;;;;;4993673;28;20032;-83
2022/08/24 00:46:47;;;;;;;14.15;7.90;;;18.90;99.90;;;;;;4989511;28;20022;-84
2022/08/24 00:49:22;;;;;;;15.10;8.18;;;18.90;99.90;;;;;;4992151;28;20030;-83
2022/08/24 00:52:02;;;;;;;16.13;6.88;;;18.70;99.90;;;;;;4989965;28;20034;-83
2022/08/24 00:54:30;;;;;;;;;;;18.50;99.90;;;;;;4993270;28;20025;-83
2022/08/24 00:57:01;;;;;;;15.88;7.80;;;18.50;99.90;;;;;;4985917;28;20350;-83
2022/08/24 00:59:34;;;;;;;13.20;7.78;;;18.40;99.90;;;;;;4982512;28;20030;-83
2022/08/24 01:02:05;;;;;;;12.52;7.72;;;18.30;99.90;;;;;;4986619;28;20019;-83
2022/08/24 01:04:38;;;;;;;15.90;8.23;;;18.30;99.90;;;;;;4992105;28;20046;-83
2022/08/24 01:07:04;;;;;;;14.88;8.10;;;18.40;99.90;;;;;;4984814;28;20054;-83
2022/08/24 01:09:29;;;;;;;14.43;7.63;;;18.30;99.90;;;;;;4992873;28;20038;-83
2022/08/24 01:11:55;;;;;;;14.82;7.68;;;18.30;99.90;;;;;;4989327;28;20049;-83
2022/08/24 01:14:22;;;;;;;11.13;7.32;;;18.30;99.90;;;;;;4984858;28;20479;-83
2022/08/24 01:19:41;;;;;;;13.15;7.53;;;18.10;99.90;;;;;;4987073;28;20167;-83
2022/08/24 01:22:36;;;;;;;12.10;7.18;;;18.10;99.90;;;;;;4988570;28;20628;-83
2022/08/24 01:25:03;;;;;;;14.07;7.55;;;18.00;99.90;;;;;;4986778;28;20015;-83
2022/08/24 01:27:30;;;;;;;14.15;7.57;;;18.00;99.90;;;;;;4994628;28;20096;-83
2022/08/24 01:30:00;;;;;;;14.38;7.50;;;18.00;99.90;;;;;;4986715;28;20146;-83
2022/08/24 01:32:28;;;;;;;14.57;7.30;;;17.90;99.90;;;;;;4992895;28;20083;-83
2022/08/24 01:34:55;;;;;;;16.15;7.38;;;18.00;99.90;;;;;;4990857;28;20053;-83
2022/08/24 01:37:22;;;;;;;15.07;7.70;;;18.00;99.90;;;;;;4985514;28;20190;-83
2022/08/24 01:39:50;;;;;;;15.23;7.20;;;18.20;99.90;;;;;;4993380;28;20109;-83
2022/08/24 01:42:17;;;;;;;12.27;6.82;;;18.10;99.90;;;;;;4991809;28;20074;-83
2022/08/24 01:44:44;;;;;;;11.73;6.93;;;18.10;99.90;;;;;;4992941;28;20018;-83
2022/08/24 01:47:13;;;;;;;14.23;7.03;;;18.10;99.90;;;;;;4990667;28;20129;-83
2022/08/24 01:49:45;;;;;;;13.35;7.10;;;18.00;99.90;;;;;;4982315;28;20457;-83
2022/08/24 01:52:15;;;;;;;16.15;7.75;;;18.10;99.90;;;;;;4990022;28;20131;-83
2022/08/24 01:54:41;;;;;;;;;;;18.20;99.90;;;;;;4984747;28;20498;-83
2022/08/24 01:57:07;;;;;;;14.80;7.20;;;18.20;99.90;;;;;;4985383;28;19918;-83
2022/08/24 01:59:33;;;;;;;12.18;7.30;;;18.10;99.90;;;;;;4986474;28;20118;-83
2022/08/24 02:02:05;;;;;;;12.02;7.28;;;18.00;99.90;;;;;;4991852;28;20137;-83
2022/08/24 02:04:33;;;;;;;15.18;8.00;;;18.00;99.90;;;;;;4987846;28;20026;-83
2022/08/24 02:06:59;;;;;;;14.10;8.25;;;17.90;99.90;;;;;;4983239;28;20153;-83
2022/08/24 02:09:25;;;;;;;14.05;7.57;;;17.70;99.90;;;;;;5002853;28;20117;-83
2022/08/24 02:11:51;;;;;;;13.63;7.88;;;17.60;99.90;;;;;;4990330;28;20038;-83
2022/08/24 02:14:18;;;;;;;12.73;7.85;;;17.60;99.90;;;;;;4986521;28;20370;-83
2022/08/24 02:16:43;;;;;;;16.95;7.70;;;17.50;99.90;;;;;;4982470;28;20083;-83
2022/08/24 02:19:09;;;;;;;12.50;7.95;;;17.50;99.90;;;;;;4988722;28;20035;-83
2022/08/24 02:21:35;;;;;;;15.02;7.88;;;17.50;99.90;;;;;;4994510;28;20027;-83
2022/08/24 02:24:01;;;;;;;12.55;7.78;;;17.40;99.90;;;;;;4992547;28;20482;-83
2022/08/24 02:26:27;;;;;;;14.70;8.40;;;17.40;99.90;;;;;;4990555;28;20034;-82
2022/08/24 02:28:53;;;;;;;14.60;8.20;;;17.30;99.90;;;;;;4996096;28;20034;-83
2022/08/24 02:31:18;;;;;;;14.27;8.10;;;17.20;99.90;;;;;;4992908;28;20053;-83
2022/08/24 02:33:44;;;;;;;13.85;8.38;;;17.20;99.90;;;;;;4993574;28;20694;-83
2022/08/24 02:36:11;;;;;;;13.88;8.48;;;17.20;99.90;;;;;;4990968;28;20398;-83
2022/08/24 02:38:37;;;;;;;14.82;8.35;;;17.20;99.90;;;;;;4995015;28;20495;-82
2022/08/24 02:41:04;;;;;;;14.57;8.15;;;17.20;99.90;;;;;;4994218;28;20526;-82
2022/08/24 02:43:30;;;;;;;17.98;8.00;;;17.20;99.90;;;;;;4993896;28;20471;-83
2022/08/24 02:45:56;;;;;;;16.98;8.68;;;17.20;99.90;;;;;;4990950;28;20109;-83
2022/08/24 02:48:22;;;;;;;12.82;8.13;;;17.10;99.90;;;;;;4990889;28;20832;-83
2022/08/24 02:50:50;;;;;;;17.70;8.52;;;17.00;99.90;;;;;;4994759;28;20096;-83
2022/08/24 02:53:18;;;;;;;13.18;8.23;;;17.00;99.90;;;;;;4992979;28;20038;-83
2022/08/24 02:55:44;;;;;;;16.23;8.48;;;17.00;99.90;;;;;;4991865;28;20573;-83
2022/08/24 02:58:12;;;;;;;14.55;8.18;;;17.10;99.90;;;;;;4988253;28;20084;-82
2022/08/24 03:00:39;;;;;;;17.27;8.43;;;17.30;99.90;;;;;;4994270;28;20483;-83
2022/08/24 03:03:06;;;;;;;14.95;8.77;;;17.30;99.90;;;;;;4994107;28;20022;-83
2022/08/24 03:05:32;;;;;;;15.95;8.20;;;17.20;99.90;;;;;;4994235;28;20046;-83
2022/08/24 03:07:58;;;;;;;13.18;7.97;;;17.20;99.90;;;;;;4992893;28;20038;-83
2022/08/24 03:10:23;;;;;;;15.60;7.97;;;17.10;99.90;;;;;;4994877;28;20060;-83
2022/08/24 03:12:50;;;;;;;12.70;8.13;;;17.10;99.90;;;;;;4991715;28;20090;-83
2022/08/24 03:15:17;;;;;;;16.33;7.80;;;17.20;99.90;;;;;;4993363;28;20026;-82
2022/08/24 03:17:43;;;;;;;13.98;7.47;;;17.10;99.90;;;;;;4994305;28;20073;-83
2022/08/24 03:20:13;;;;;;;12.07;7.88;;;17.10;99.90;;;;;;4989303;28;20030;-83
2022/08/24 03:22:39;;;;;;;13.23;7.90;;;16.90;99.90;;;;;;4992613;28;20034;-83
2022/08/24 03:25:06;;;;;;;13.75;7.38;;;16.90;99.90;;;;;;4989076;28;20117;-83
2022/08/24 03:27:32;;;;;;;14.85;7.95;;;16.90;99.90;;;;;;4991811;28;20034;-83
2022/08/24 03:29:57;;;;;;;13.00;8.05;;;16.80;99.90;;;;;;4991343;28;20027;-83
2022/08/24 03:32:23;;;;;;;14.57;8.23;;;16.80;99.90;;;;;;4989249;28;20066;-82
2022/08/24 03:34:49;;;;;;;13.27;7.55;;;16.80;99.90;;;;;;4988758;28;20034;-83
2022/08/24 03:37:15;;;;;;;13.93;7.93;;;16.80;99.90;;;;;;4987614;28;20034;-83
2022/08/24 03:39:41;;;;;;;13.63;8.35;;;16.70;99.90;;;;;;5006446;28;20018;-83
2022/08/24 03:42:06;;;;;;;15.18;8.85;;;16.70;99.90;;;;;;4992211;28;20129;-83
2022/08/24 03:44:32;;;;;;;16.83;8.15;;;16.70;99.90;;;;;;4996177;28;20046;-83
2022/08/24 03:46:59;;;;;;;15.35;8.48;;;16.60;99.90;;;;;;4992258;28;20046;-83
2022/08/24 03:49:24;;;;;;;14.38;8.43;;;16.50;99.90;;;;;;4993852;28;20034;-83
2022/08/24 03:51:50;;;;;;;16.58;8.77;;;16.50;99.90;;;;;;4994136;28;20037;-83
2022/08/24 03:54:16;;;;;;;15.30;8.02;;;16.50;99.90;;;;;;4992778;28;20029;-83
2022/08/24 03:56:42;;;;;;;16.48;8.35;;;16.60;99.90;;;;;;4990767;28;20034;-83
2022/08/24 03:59:09;;;;;;;17.17;8.07;;;16.70;99.90;;;;;;4989069;28;20039;-82
2022/08/24 04:01:35;;;;;;;11.48;6.93;;;16.70;99.90;;;;;;5002026;28;20415;-83
2022/08/24 04:04:02;;;;;;;15.82;7.30;;;16.70;99.90;;;;;;4981106;28;20027;-82
2022/08/24 04:06:28;;;;;;;13.93;7.43;;;16.80;99.90;;;;;;4990698;28;20054;-83
2022/08/24 04:08:54;;;;;;;13.07;7.47;;;17.00;99.90;;;;;;4988671;28;20030;-83
2022/08/24 04:11:23;;;;;;;16.77;6.43;;;17.10;99.90;;;;;;4995812;28;20580;-82
2022/08/24 04:13:51;;;;;;;15.77;6.93;;;17.40;99.90;;;;;;4994036;28;20026;-82
2022/08/24 04:16:19;;;;;;;15.05;7.20;;;17.50;99.90;;;;;;4992352;28;20763;-84
2022/08/24 04:18:45;;;;;;;11.88;6.88;;;17.60;99.90;;;;;;5005775;28;20089;-84
2022/08/24 04:21:30;;;;;;;13.68;6.50;;;17.60;99.90;;;;;;4993182;28;20031;-84
2022/08/24 04:23:56;;;;;;;13.65;6.43;;;17.60;99.90;;;;;;4991225;28;20027;-84
2022/08/24 04:26:25;;;;;;;14.23;6.93;;;17.50;99.90;;;;;;4986401;28;20065;-84
2022/08/24 04:28:51;;;;;;;15.68;6.43;;;17.50;99.90;;;;;;4990625;28;20058;-84
2022/08/24 04:31:17;;;;;;;11.00;6.40;;;17.30;99.90;;;;;;4987159;28;20593;-83
2022/08/24 04:33:45;;;;;;;11.02;7.03;;;17.30;99.90;;;;;;4991068;28;20026;-84
2022/08/24 04:36:12;;;;;;;13.85;7.53;;;17.20;99.90;;;;;;4988291;28;20038;-83
2022/08/24 04:38:38;;;;;;;12.02;7.40;;;17.10;99.90;;;;;;4991609;28;20089;-83
2022/08/24 04:41:07;;;;;;;13.57;7.65;;;17.00;99.90;;;;;;4984102;28;20413;-84
2022/08/24 04:43:34;;;;;;;14.67;8.47;;;16.90;99.90;;;;;;4987941;28;20029;-84
2022/08/24 04:46:03;;;;;;;14.88;8.10;;;16.90;99.90;;;;;;4992509;28;20269;-84
2022/08/24 04:48:29;;;;;;;13.93;7.88;;;16.90;99.90;;;;;;4988414;28;20045;-83
2022/08/24 04:50:59;;;;;;;12.90;7.95;;;16.90;99.90;;;;;;4990375;28;20039;-84
2022/08/24 04:53:25;;;;;;;12.93;7.07;;;16.90;99.90;;;;;;4990761;28;20026;-84
2022/08/24 04:55:51;;;;;;;11.60;6.60;;;17.00;99.90;;;;;;4986969;28;20041;-84
2022/08/24 04:58:17;;;;;;;11.60;6.55;;;17.00;99.90;;;;;;4991852;28;20072;-84
2022/08/24 05:00:44;;;;;;;12.77;7.40;;;17.10;99.90;;;;;;4995265;28;20105;-84
2022/08/24 05:03:10;;;;;;;12.50;6.93;;;17.20;99.90;;;;;;4991479;28;20174;-84
2022/08/24 05:05:44;;;;;;;13.70;6.40;;;17.20;99.90;;;;;;4989893;28;20046;-84
2022/08/24 05:08:11;;;;;;;11.63;7.35;;;17.40;99.90;;;;;;4989239;28;20034;-84
2022/08/24 05:10:41;;;;;;;13.23;7.43;;;17.50;99.90;;;;;;4993431;28;20038;-83
2022/08/24 05:13:07;;;;;;;15.23;6.80;;;17.50;99.90;;;;;;4989611;28;20376;-84
2022/08/24 05:15:34;;;;;;;11.65;6.95;;;17.60;99.90;;;;;;4991115;28;20501;-84
2022/08/24 05:18:01;;;;;;;11.93;6.43;;;17.60;99.90;;;;;;4982677;28;20037;-84
2022/08/24 05:20:27;;;;;;;13.65;7.20;;;17.60;99.90;;;;;;4988488;28;20475;-85
2022/08/24 05:22:53;;;;;;;14.50;6.82;;;17.70;99.90;;;;;;4990654;28;20042;-86
2022/08/24 05:25:20;;;;;;;10.77;6.68;;;17.80;99.90;;;;;;4992449;28;20030;-86
2022/08/24 05:27:46;;;;;;;12.93;6.60;;;17.80;99.90;;;;;;4991742;28;20038;-85
2022/08/24 05:30:12;;;;;;;15.70;6.60;;;17.90;99.90;;;;;;4987824;28;20506;-85
2022/08/24 05:32:38;;;;;;;13.98;6.85;;;17.90;99.90;;;;;;4989581;28;20030;-85
2022/08/24 05:35:05;;;;;;;12.55;6.28;;;18.10;99.90;;;;;;4989979;28;20041;-85
2022/08/24 05:37:34;;;;;;;12.60;6.63;;;18.20;99.90;;;;;;4992217;28;20048;-84
2022/08/24 05:40:02;;;;;;;13.65;6.47;;;18.30;99.90;;;;;;4990576;28;20681;-85
2022/08/24 05:42:27;;;;;;;12.80;6.40;;;18.40;99.90;;;;;;4997471;28;20085;-85
2022/08/24 05:44:53;;;;;;;10.48;6.10;;;18.60;99.90;;;;;;4994623;28;20077;-85
2022/08/24 05:47:18;;;;;;;12.48;6.07;;;18.80;99.90;;;;;;4990056;28;20023;-85
2022/08/24 05:49:44;;;;;;;10.25;5.80;;;18.90;99.90;;;;;;4988698;28;20038;-85
2022/08/24 05:52:10;;;;;;;10.38;5.03;;;19.10;99.90;;;;;;4990681;28;20673;-86
2022/08/24 05:54:36;;;;;;;10.70;5.78;;;19.30;99.90;;;;;;4988883;28;20026;-85
2022/08/24 05:57:03;;;;;;;13.25;5.20;;;19.50;99.90;;;;;;4986981;28;20007;-85
2022/08/24 05:59:30;;;;;;;9.93;5.03;;;19.70;99.90;;;;;;4987884;28;20493;-85
2022/08/24 06:01:56;;;;;;;9.50;4.90;;;19.90;99.90;;;;;;5004061;28;20027;-84
2022/08/24 06:04:21;;;;;;;11.50;5.13;;;20.10;99.90;;;;;;4983878;28;20023;-84
2022/08/24 06:06:48;;;;;;;11.90;4.95;;;20.30;99.90;;;;;;4983739;28;20319;-84
2022/08/24 06:09:14;;;;;;;9.40;5.25;;;20.60;99.90;;;;;;4982993;28;20037;-84
2022/08/24 06:11:41;;;;;;;11.52;4.57;;;20.80;99.90;;;;;;4988057;28;20026;-84
2022/08/24 06:14:13;;;;;;;10.38;4.70;;;21.00;99.90;;;;;;4992188;28;20137;-84
2022/08/24 06:16:41;;;;;;;14.25;5.05;;;21.30;99.90;;;;;;4987607;28;20450;-84
2022/08/24 06:19:10;;;;;;;11.55;4.70;;;21.40;99.90;;;;;;4984099;28;20031;-84
2022/08/24 06:21:36;;;;;;;12.20;4.57;;;21.60;99.90;;;;;;4989954;28;20019;-82
2022/08/24 06:24:04;;;;;;;11.07;4.38;;;21.80;99.90;;;;;;4987364;28;20019;-84
2022/08/24 06:29:13;;;;;;;11.30;4.10;;;22.20;99.90;;;;;;4991307;28;20060;-83
2022/08/24 06:31:43;;;;;;;8.57;4.15;;;22.40;99.90;;;;;;4993677;28;20023;-82
2022/08/24 06:34:10;;;;;;;8.15;3.80;;;22.50;99.90;;;;;;4989602;28;20026;-82
2022/08/24 06:36:36;;;;;;;16.08;4.28;;;22.80;99.90;;;;;;4993776;28;20073;-82
2022/08/24 06:39:03;;;;;;;10.48;4.00;;;22.90;99.90;;;;;;4993710;28;20423;-84
2022/08/24 06:41:29;;;;;;;12.95;4.20;;;23.10;99.90;;;;;;4993294;28;20034;-83
2022/08/24 06:43:55;;;;;;;7.30;3.58;;;23.30;99.90;;;;;;4992659;28;20023;-83
2022/08/24 06:46:21;;;;;;;12.07;4.03;;;23.40;99.90;;;;;;5005058;28;20091;-84
2022/08/24 06:48:47;;;;;;;9.85;3.90;;;23.60;99.90;;;;;;4990411;28;20490;-84
2022/08/24 06:51:16;;;;;;;11.35;3.78;;;23.70;99.90;;;;;;4987312;28;20030;-83
2022/08/24 06:53:42;;;;;;;16.48;4.10;;;23.90;99.90;;;;;;4985864;28;20054;-83
2022/08/24 06:56:09;;;;;;;10.20;3.85;;;24.00;99.40;;;;;;4984150;28;20424;-84
2022/08/24 06:58:35;;;;;;;10.77;3.58;;;24.20;99.50;;;;;;4990064;28;20053;-84
2022/08/24 07:01:14;;;;;;;12.55;4.28;;;24.30;99.00;;;;;;4990079;28;20100;-85
2022/08/24 07:03:40;;;;;;;10.57;3.50;;;24.40;98.90;;;;;;4987774;28;20053;-84
2022/08/24 07:06:07;;;;;;;8.93;3.72;;;24.50;98.60;;;;;;4987624;28;20756;-84
2022/08/24 07:08:34;;;;;;;18.83;4.15;;;24.60;98.10;;;;;;4995532;28;20058;-84
2022/08/24 07:11:00;;;;;;;9.25;3.50;;;24.80;98.00;;;;;;4991961;28;20178;-85
2022/08/24 07:13:25;;;;;;;7.68;3.47;;;24.90;97.50;;;;;;4997144;28;20046;-84
2022/08/24 07:15:52;;;;;;;9.23;3.85;;;25.10;97.30;;;;;;4994516;28;20035;-84
2022/08/24 07:18:19;;;;;;;10.05;3.53;;;25.10;96.60;;;;;;4992712;28;20073;-84
2022/08/24 07:20:46;;;;;;;12.93;3.25;;;25.20;96.30;;;;;;4992620;28;20182;-84
2022/08/24 07:23:13;;;;;;;9.52;3.50;;;25.20;96.10;;;;;;4988978;28;20026;-84
2022/08/24 07:25:40;;;;;;;8.70;3.10;;;25.30;95.40;;;;;;4991758;28;20499;-84
2022/08/24 07:28:07;;;;;;;9.40;3.40;;;25.40;94.10;;;;;;4991065;28;20580;-85
2022/08/24 07:30:33;;;;;;;7.10;3.10;;;25.50;94.00;;;;;;4984393;28;20037;-84
2022/08/24 07:32:59;;;;;;;9.05;3.30;;;25.50;93.60;;;;;;4992155;28;20061;-84
2022/08/24 07:35:27;;;;;;;9.65;3.30;;;25.40;93.60;;;;;;4990650;28;20460;-84
2022/08/24 07:37:54;;;;;;;10.00;3.17;;;25.50;93.70;;;;;;4993520;28;20484;-84
2022/08/24 07:40:20;;;;;;;9.93;3.17;;;25.60;93.10;;;;;;4981079;28;20016;-84
2022/08/24 07:42:51;;;;;;;8.43;3.40;;;25.60;92.90;;;;;;4991697;28;20551;-84
2022/08/24 07:45:17;;;;;;;9.40;3.28;;;25.60;92.30;;;;;;4984515;28;20027;-84
2022/08/24 07:47:44;;;;;;;9.23;2.97;;;25.60;92.60;;;;;;4989006;28;20018;-84
2022/08/24 07:50:11;;;;;;;10.93;3.53;;;25.60;92.80;;;;;;4991879;28;20110;-85
2022/08/24 07:52:37;;;;;;;8.65;3.25;;;25.70;92.60;;;;;;4993785;28;20069;-84
2022/08/24 07:55:04;;;;;;;9.73;3.20;;;25.90;92.50;;;;;;4991911;28;20027;-83
2022/08/24 07:57:30;;;;;;;10.55;3.30;;;26.10;92.50;;;;;;4993228;28;20026;-84
2022/08/24 07:59:58;;;;;;;9.60;3.25;;;26.30;91.50;;;;;;4989981;28;20054;-84
2022/08/24 08:02:24;;;;;;;7.93;3.08;;;26.40;91.20;;;;;;4991283;28;20577;-84
2022/08/24 08:04:50;;;;;;;9.38;3.63;;;26.40;91.10;;;;;;4989339;28;20050;-85
2022/08/24 08:07:16;;;;;;;9.38;3.63;;;26.60;90.70;;;;;;4986440;28;20026;-84
2022/08/24 08:09:42;;;;;;;11.25;3.20;;;26.60;90.40;;;;;;4992318;28;20034;-84
2022/08/24 08:12:08;;;;;;;7.70;3.30;;;26.70;90.80;;;;;;4989203;28;20040;-84
2022/08/24 08:14:34;;;;;;;11.27;3.17;;;26.80;91.00;;;;;;4987366;28;20503;-85
2022/08/24 08:17:00;;;;;;;8.18;3.15;;;27.10;90.70;;;;;;4992136;28;20034;-84
2022/08/24 08:19:26;;;;;;;11.43;3.28;;;27.20;90.40;;;;;;4991101;28;20029;-85
2022/08/24 08:24:41;;;;;;;11.15;3.33;;;27.60;90.40;;;;;;4989293;28;20048;-84
2022/08/24 08:27:07;;;;;;;11.45;3.30;;;28.10;88.50;;;;;;4992246;28;20114;-85
2022/08/24 08:29:34;;;;;;;11.00;3.30;;;28.40;86.00;;;;;;4981248;28;20082;-85
2022/08/24 08:31:59;;;;;;;8.70;2.90;;;28.90;84.40;;;;;;4984987;28;20027;-84
2022/08/24 08:34:26;;;;;;;11.90;3.30;;;29.30;81.20;;;;;;4992689;28;20045;-84
2022/08/24 08:36:53;;;;;;;8.32;3.03;;;29.30;80.70;;;;;;4989305;28;20020;-85
2022/08/24 08:39:20;;;;;;;7.47;2.47;;;29.60;79.60;;;;;;4991072;28;20678;-84
2022/08/24 08:42:13;;;;;;;8.75;3.30;;;30.30;78.40;;;;;;4992152;28;20589;-84
2022/08/24 08:44:57;;;;;;;10.25;2.97;;;31.00;76.50;;;;;;4983472;28;20027;-84
2022/08/24 08:47:52;;;;;;;9.35;3.25;;;31.40;75.40;;;;;;4987849;28;20073;-84
2022/08/24 08:50:46;;;;;;;8.77;3.10;;;31.40;76.30;;;;;;4983577;28;20102;-84
2022/08/24 08:53:20;;;;;;;12.45;3.08;;;31.30;76.40;;;;;;4985069;28;20026;-84
2022/08/24 08:55:52;;;;;;;9.45;3.05;;;31.80;75.80;;;;;;5003351;28;20105;-84
2022/08/24 08:58:36;;;;;;;12.52;3.20;;;32.00;74.50;;;;;;5001360;28;20034;-84
2022/08/24 09:01:34;;;;;;;8.77;2.83;;;31.30;73.40;;;;;;4991715;28;20045;-84
2022/08/24 09:04:37;;;;;;;10.77;2.83;;;31.70;73.00;;;;;;4975785;28;20705;-84
2022/08/24 09:07:19;;;;;;;8.20;2.80;;;32.70;73.00;;;;;;4996208;28;20546;-84
2022/08/24 09:10:01;;;;;;;7.43;2.70;;;33.20;72.00;;;;;;4987705;28;20387;-84
2022/08/24 09:12:50;;;;;;;7.72;2.83;;;33.50;70.20;;;;;;4990253;28;20164;-84
2022/08/24 09:15:17;;;;;;;9.65;2.92;;;33.80;71.40;;;;;;4993084;28;20022;-84
2022/08/24 09:18:00;;;;;;;9.15;2.80;;;33.00;70.40;;;;;;4993588;28;20066;-84
2022/08/24 09:20:27;;;;;;;12.15;3.00;;;32.80;71.00;;;;;;4982221;28;20030;-84
2022/08/24 09:23:26;;;;;;;7.15;2.70;;;33.00;69.30;;;;;;5000489;28;20027;-84
2022/08/24 09:26:25;;;;;;;11.38;2.85;;;33.60;70.40;;;;;;5002885;28;20030;-84
2022/08/24 09:29:17;;;;;;;7.93;2.88;;;34.00;67.90;;;;;;4986380;28;20034;-84
2022/08/24 09:32:15;;;;;;;6.20;2.60;;;34.00;68.10;;;;;;4984930;28;20042;-84
2022/08/24 09:35:02;;;;;;;9.07;2.63;;;33.70;68.80;;;;;;4989502;28;20041;-84
2022/08/24 09:37:39;;;;;;;9.18;2.67;;;33.80;67.70;;;;;;5005608;28;20030;-84
2022/08/24 09:40:36;;;;;;;8.68;3.05;;;33.40;69.40;;;;;;4985499;28;20446;-84
2022/08/24 09:43:14;;;;;;;10.07;2.70;;;33.10;69.40;;;;;;4987520;28;20459;-84
2022/08/24 09:45:52;;;;;;;8.43;2.60;;;32.90;69.20;;;;;;5002227;28;20110;-84
2022/08/24 09:48:39;;;;;;;10.27;2.70;;;33.10;69.80;;;;;;4987710;28;20038;-84
2022/08/24 09:51:07;;;;;;;9.60;3.10;;;33.80;67.90;;;;;;4983928;28;20041;-84
2022/08/24 09:53:53;;;;;;;8.07;2.50;;;33.30;68.50;;;;;;5007286;28;20040;-83
2022/08/24 09:56:45;;;;;;;11.90;2.60;;;33.30;69.90;;;;;;4984497;28;20090;-83
2022/08/24 09:59:46;;;;;;;10.35;2.60;;;34.00;69.20;;;;;;4986668;28;20045;-83
2022/08/24 10:02:40;;;;;;;6.93;2.70;;;33.50;69.00;;;;;;4968802;28;20030;-83
2022/08/24 10:05:36;;;;;;;8.25;2.75;;;33.90;68.40;;;;;;4988380;28;20841;-83
2022/08/24 10:08:40;;;;;;;7.03;2.63;;;34.40;68.20;;;;;;4989868;28;20038;-83
2022/08/24 10:11:14;;;;;;;9.80;2.88;;;35.60;66.80;;;;;;4979721;28;20046;-84
2022/08/24 10:13:46;;;;;;;6.80;2.60;;;34.90;66.90;;;;;;4999200;28;20437;-84
2022/08/24 10:16:35;;;;;;;9.13;2.75;;;35.20;67.20;;;;;;5001560;28;20049;-83
2022/08/24 10:19:27;;;;;;;7.90;2.60;;;34.70;65.90;;;;;;4964506;28;20145;-84
2022/08/24 10:22:07;;;;;;;8.02;2.97;;;35.60;65.30;;;;;;4969534;28;21667;-84
2022/08/24 10:24:46;;;;;;;9.93;3.15;;;34.90;65.20;;;;;;4986838;28;20112;-84
2022/08/24 10:27:12;;;;;;;10.90;2.78;;;34.10;65.90;;;;;;5007419;28;20039;-84
2022/08/24 10:30:05;;;;;;;7.75;2.80;;;33.40;68.50;;;;;;4993857;28;20045;-83
2022/08/24 10:32:40;;;;;;;12.75;3.10;;;33.60;67.50;;;;;;4985224;28;20034;-84
2022/08/24 10:35:14;;;;;;;9.65;2.50;;;33.80;67.30;;;;;;4989009;28;20026;-84
2022/08/24 10:41:13;;;;;;;8.10;2.40;;;35.70;66.00;;;;;;4983297;28;20038;-84
2022/08/24 10:44:12;;;;;;;8.82;2.60;;;36.00;64.10;;;;;;4990000;28;20134;-84
2022/08/24 10:46:49;;;;;;;7.32;2.70;;;35.20;64.20;;;;;;4987686;28;20093;-83
2022/08/24 10:49:34;;;;;;;6.13;2.70;;;35.70;65.00;;;;;;5007695;28;20035;-84
2022/08/24 10:52:00;;;;;;;12.52;2.83;;;36.60;63.00;;;;;;5006438;28;20096;-84
2022/08/24 10:54:26;;;;;;;7.32;2.47;;;37.40;62.60;;;;;;4999897;28;20108;-84
2022/08/24 10:57:27;;;;;;;5.85;2.30;;;37.70;61.60;;;;;;4991506;28;20042;-84
2022/08/24 11:00:11;;;;;;;6.47;2.40;;;36.90;62.20;;;;;;4992286;28;20057;-83
2022/08/24 11:02:39;;;;;;;7.90;2.17;;;37.10;61.20;;;;;;4994594;28;20065;-84
2022/08/24 11:05:43;;;;;;;10.85;2.60;;;37.90;60.00;;;;;;4984383;28;20053;-84
2022/08/24 11:08:19;;;;;;;11.27;2.65;;;38.40;61.00;;;;;;4971208;28;20042;-83
2022/08/24 11:11:01;;;;;;;9.98;2.60;;;36.50;60.30;;;;;;4989099;28;20109;-83
2022/08/24 11:13:26;;;;;;;9.45;2.60;;;36.00;61.50;;;;;;4986559;28;20022;-84
2022/08/24 11:15:56;;;;;;;8.10;2.50;;;36.50;61.50;;;;;;5010415;28;20096;-84
2022/08/24 11:18:22;;;;;;;7.68;2.50;;;37.10;60.80;;;;;;4994002;28;20535;-84
2022/08/24 11:20:52;;;;;;;8.85;2.38;;;36.50;61.40;;;;;;4991148;28;20019;-84
2022/08/24 11:23:20;;;;;;;12.13;2.80;;;36.80;61.20;;;;;;4986249;28;20029;-83
2022/08/24 11:26:06;;;;;;;10.05;3.30;;;36.20;62.70;;;;;;4986273;28;20031;-83
2022/08/24 11:28:46;;;;;;;11.88;2.35;;;36.00;62.70;;;;;;4988666;28;20131;-83
2022/08/24 11:31:19;;;;;;;9.45;2.42;;;37.10;60.90;;;;;;5003288;28;20027;-83
2022/08/24 11:33:56;;;;;;;7.20;2.40;;;37.20;60.30;;;;;;4993845;28;20029;-83
2022/08/24 11:36:26;;;;;;;7.75;2.33;;;38.40;60.50;;;;;;4988203;28;20027;-84
2022/08/24 11:39:14;;;;;;;10.68;2.45;;;38.60;60.00;;;;;;4989620;28;20030;-83
2022/08/24 11:42:12;;;;;;;7.47;2.58;;;38.60;59.20;;;;;;4986911;28;20136;-83
2022/08/24 11:44:50;;;;;;;15.48;2.97;;;37.60;60.30;;;;;;4982145;28;20045;-84
2022/08/24 11:47:19;;;;;;;7.32;2.20;;;38.70;58.50;;;;;;4988018;28;20065;-84
2022/08/24 11:50:02;;;;;;;6.63;2.63;;;38.70;60.30;;;;;;5003137;28;20112;-84
2022/08/24 11:53:01;;;;;;;8.10;2.50;;;37.70;60.30;;;;;;4990696;28;20227;-84
2022/08/24 11:55:36;;;;;;;7.22;2.70;;;37.80;59.50;;;;;;4993305;28;20033;-84
2022/08/24 11:58:14;;;;;;;6.60;2.38;;;37.60;59.30;;;;;;5000597;28;20089;-84
2022/08/24 12:00:55;;;;;;;6.35;2.35;;;38.60;57.90;;;;;;4988775;28;20023;-84
2022/08/24 12:03:44;;;;;;;11.55;2.60;;;39.00;57.00;;;;;;4990512;28;20027;-83
2022/08/24 12:06:49;;;;;;;6.80;2.50;;;39.00;58.30;;;;;;5009206;28;20141;-84
2022/08/24 12:09:38;;;;;;;9.30;2.40;;;38.10;59.40;;;;;;4990079;28;20398;-83
2022/08/24 12:12:40;;;;;;;8.50;2.50;;;38.50;58.40;;;;;;4989941;28;20050;-84
2022/08/24 12:15:34;;;;;;;9.20;2.75;;;38.20;58.60;;;;;;4985122;28;20049;-84
2022/08/24 12:18:10;;;;;;;6.78;2.25;;;38.60;58.20;;;;;;4991203;28;20271;-84
2022/08/24 12:20:47;;;;;;;7.80;2.45;;;37.90;57.90;;;;;;4989969;28;20585;-84
2022/08/24 12:23:25;;;;;;;11.68;2.70;;;37.80;58.40;;;;;;4989492;28;20037;-83
2022/08/24 12:26:01;;;;;;;8.65;2.45;;;37.40;59.10;;;;;;5001304;28;20038;-83
2022/08/24 12:28:40;;;;;;;6.43;2.40;;;37.40;58.20;;;;;;4988424;28;20031;-84
2022/08/24 12:31:21;;;;;;;8.90;2.88;;;38.10;57.40;;;;;;4985399;28;20101;-84
2022/08/24 12:33:52;;;;;;;9.43;2.85;;;38.10;57.90;;;;;;4989047;28;20027;-83
2022/08/24 12:36:32;;;;;;;8.88;2.58;;;38.00;57.80;;;;;;4990581;28;20026;-84
2022/08/24 12:39:14;;;;;;;9.00;2.60;;;38.70;58.00;;;;;;4988041;28;20031;-84
2022/08/24 12:42:06;;;;;;;6.40;2.75;;;39.80;55.30;;;;;;4990101;28;20041;-83
2022/08/24 12:44:52;;;;;;;9.50;2.50;;;39.50;56.30;;;;;;5000552;28;20027;-84
2022/08/24 12:47:37;;;;;;;7.35;2.40;;;39.20;56.00;;;;;;4988372;28;20054;-84
2022/08/24 12:50:15;;;;;;;9.65;2.67;;;38.70;57.20;;;;;;4992272;28;20027;-84
2022/08/24 12:53:02;;;;;;;8.70;2.28;;;39.10;56.30;;;;;;4988937;28;20535;-84
2022/08/24 12:55:52;;;;;;;8.45;2.50;;;39.30;56.40;;;;;;4991994;28;20029;-84
2022/08/24 12:58:50;;;;;;;7.78;2.40;;;39.10;55.60;;;;;;4987488;28;20035;-84
2022/08/24 13:01:18;;;;;;;8.70;2.42;;;40.40;55.70;;;;;;4967500;28;20035;-84
2022/08/24 13:03:49;;;;;;;7.30;2.47;;;40.40;55.90;;;;;;4986003;28;20045;-84
2022/08/24 13:06:44;;;;;;;11.57;2.58;;;40.60;55.40;;;;;;5002391;28;20120;-84
2022/08/24 13:09:24;;;;;;;7.90;2.17;;;40.70;56.10;;;;;;4985938;28;20030;-84
2022/08/24 13:11:50;;;;;;;5.93;2.25;;;40.60;54.80;;;;;;4983624;28;20129;-84
2022/08/24 13:14:17;;;;;;;6.93;2.42;;;40.80;54.10;;;;;;4989077;28;20072;-84
2022/08/24 13:16:57;;;;;;;6.38;2.55;;;40.80;53.70;;;;;;5003197;28;20069;-84